James Island, South Carolina
Current Conditions -  °F | °C
As of 2:55 PM on Sunday 25 Jan 2015 (Local Time) from KJZI Reporting Station
Clear Clear  
Wind Chill: 12°   Ceiling: Unl
Heat Index: 12°   Visibility: 10mi
Dew Point:   Wind: 12mph
Humidity: 54%   Direction: 180°S
Pressure: 29.92"   Gusts: NA
Location:  32.7248°N, 79.9608°W
Report Text: KJZI 251955Z AUTO 18010KT 10SM CLR 12/03 A2992 RMK A02 P000
Loading
Personal Weather Stations






























Interactive Weather Map New forecast layout! Learn more

10-Day Weather Forecast

Advertisements
Track Severe Weather on mobile